Time;durP1;ratioP1;P1;durP2;ratioP2;P2;SDS_P1;SDS_P2;PMS_P1;PMS_P2;Temp;Humidity;BMP_temperature;BMP_pressure;BME280_temperature;BME280_humidity;BME280_pressure;Samples;Min_cycle;Max_cycle;Signal;HPM_P1;HPM_P2
2021/08/09 00:00:14;;;;;;;3.78;1.83;;;18.20;99.90;;;;;;2072527;28;20022;-69
2021/08/09 00:01:14;;;;;;;3.28;2.03;;;18.20;99.90;;;;;;2074778;28;20049;-69
2021/08/09 00:02:15;;;;;;;2.55;1.42;;;18.20;99.90;;;;;;2080581;28;20060;-69
2021/08/09 00:03:15;;;;;;;4.43;1.75;;;18.20;99.90;;;;;;2071807;28;20417;-69
2021/08/09 00:04:16;;;;;;;3.00;1.73;;;18.20;99.90;;;;;;2072583;28;20026;-69
2021/08/09 00:05:17;;;;;;;3.47;1.90;;;18.20;99.90;;;;;;2072931;28;20053;-69
2021/08/09 00:06:17;;;;;;;4.10;2.15;;;18.20;99.90;;;;;;2072339;28;20128;-69
2021/08/09 00:07:18;;;;;;;5.03;1.85;;;18.20;99.90;;;;;;2072324;28;20033;-69
2021/08/09 00:08:18;;;;;;;2.72;1.48;;;18.20;99.90;;;;;;2072315;28;20034;-69
2021/08/09 00:09:19;;;;;;;3.03;1.45;;;18.20;99.90;;;;;;2072591;28;20113;-69
2021/08/09 00:10:20;;;;;;;5.20;2.25;;;18.20;99.90;;;;;;2072661;28;20045;-69
2021/08/09 00:11:20;;;;;;;3.10;1.65;;;18.20;99.90;;;;;;2072504;28;20026;-69
2021/08/09 00:12:21;;;;;;;6.53;2.42;;;18.20;99.90;;;;;;2072501;28;20533;-69
2021/08/09 00:13:21;;;;;;;4.88;1.90;;;18.20;99.90;;;;;;2072170;28;20028;-69
2021/08/09 00:14:22;;;;;;;2.45;2.00;;;18.20;99.90;;;;;;2072406;28;20393;-69
2021/08/09 00:15:23;;;;;;;2.50;1.55;;;18.20;99.90;;;;;;2072713;28;20034;-69
2021/08/09 00:16:24;;;;;;;4.90;1.52;;;18.20;99.90;;;;;;2072442;28;20121;-69
2021/08/09 00:17:25;;;;;;;3.60;1.95;;;18.20;99.90;;;;;;2072506;28;20478;-69
2021/08/09 00:18:26;;;;;;;5.03;2.08;;;18.20;99.90;;;;;;2072360;28;20038;-69
2021/08/09 00:19:26;;;;;;;3.15;1.83;;;18.20;99.90;;;;;;2072322;28;20030;-69
2021/08/09 00:20:27;;;;;;;2.75;1.27;;;18.20;99.90;;;;;;2072336;28;20073;-69
2021/08/09 00:21:28;;;;;;;2.78;1.73;;;18.20;99.90;;;;;;2072110;28;20022;-69
2021/08/09 00:22:28;;;;;;;5.60;2.03;;;18.20;99.90;;;;;;2072033;28;20033;-69
2021/08/09 00:23:29;;;;;;;2.88;1.65;;;18.20;99.90;;;;;;2072261;28;20474;-69
2021/08/09 00:24:29;;;;;;;4.72;1.52;;;18.20;99.90;;;;;;2072232;28;20026;-69
2021/08/09 00:25:30;;;;;;;3.67;2.00;;;18.20;99.90;;;;;;2071783;28;20060;-69
2021/08/09 00:26:32;;;;;;;3.05;1.95;;;18.20;99.90;;;;;;2072214;28;20044;-69
2021/08/09 00:27:34;;;;;;;5.50;2.08;;;18.20;99.90;;;;;;2072331;28;20030;-69
2021/08/09 00:28:35;;;;;;;3.05;1.63;;;18.20;99.90;;;;;;2071949;28;20047;-69
2021/08/09 00:29:35;;;;;;;2.45;1.77;;;18.20;99.90;;;;;;2073922;28;20057;-69
2021/08/09 00:30:36;;;;;;;3.67;1.75;;;18.30;99.90;;;;;;2073837;28;20085;-69
2021/08/09 00:31:36;;;;;;;4.97;1.85;;;18.20;99.90;;;;;;2072322;28;20120;-69
2021/08/09 00:32:38;;;;;;;2.15;1.50;;;18.30;99.90;;;;;;2071956;28;20022;-69
2021/08/09 00:33:38;;;;;;;4.03;1.90;;;18.30;99.90;;;;;;2072376;28;20030;-69
2021/08/09 00:34:39;;;;;;;3.25;1.90;;;18.30;99.90;;;;;;2072271;28;20022;-69
2021/08/09 00:35:39;;;;;;;4.60;1.83;;;18.30;99.90;;;;;;2072283;28;20466;-69
2021/08/09 00:36:40;;;;;;;6.22;2.10;;;18.30;99.90;;;;;;2071643;28;20036;-69
2021/08/09 00:37:40;;;;;;;3.03;1.67;;;18.30;99.90;;;;;;2072343;28;20050;-69
2021/08/09 00:38:41;;;;;;;5.05;2.30;;;18.30;99.90;;;;;;2072199;28;20474;-69
2021/08/09 00:39:42;;;;;;;2.92;1.70;;;18.30;99.90;;;;;;2072215;28;20014;-69
2021/08/09 00:40:42;;;;;;;3.60;1.95;;;18.30;99.90;;;;;;2071415;28;20102;-69
2021/08/09 00:41:43;;;;;;;6.50;2.03;;;18.30;99.90;;;;;;2071271;28;20102;-69
2021/08/09 00:42:43;;;;;;;3.63;1.83;;;18.30;99.90;;;;;;2072016;28;20030;-69
2021/08/09 00:43:44;;;;;;;4.60;1.90;;;18.30;99.90;;;;;;2072272;28;20105;-69
2021/08/09 00:44:44;;;;;;;7.38;2.25;;;18.30;99.90;;;;;;2072392;28;20030;-69
2021/08/09 00:45:45;;;;;;;5.22;2.00;;;18.20;99.90;;;;;;2072228;28;20117;-69
2021/08/09 00:46:46;;;;;;;4.78;1.60;;;18.30;99.90;;;;;;2073156;28;20413;-69
2021/08/09 00:47:46;;;;;;;6.53;1.92;;;18.20;99.90;;;;;;2065182;28;20034;-69
2021/08/09 00:48:47;;;;;;;4.72;2.00;;;18.20;99.90;;;;;;2070425;28;20053;-69
2021/08/09 00:49:47;;;;;;;2.67;1.83;;;18.20;99.90;;;;;;2068714;28;20408;-69
2021/08/09 00:50:48;;;;;;;3.45;1.90;;;18.20;99.90;;;;;;2072079;28;20548;-69
2021/08/09 00:51:48;;;;;;;3.40;1.83;;;18.20;99.90;;;;;;2071559;28;20038;-69
2021/08/09 00:52:50;;;;;;;6.28;2.00;;;18.20;99.90;;;;;;2071659;28;20033;-69
2021/08/09 00:53:51;;;;;;;3.13;1.70;;;18.20;99.90;;;;;;2064098;28;20031;-69
2021/08/09 00:54:52;;;;;;;1.88;1.58;;;18.20;99.90;;;;;;2069101;28;20021;-69
2021/08/09 00:55:53;;;;;;;3.80;2.13;;;18.20;99.90;;;;;;2071873;28;20030;-69
2021/08/09 00:56:54;;;;;;;2.92;1.90;;;18.20;99.90;;;;;;2072254;28;20498;-69
2021/08/09 00:57:54;;;;;;;3.05;1.58;;;18.20;99.90;;;;;;2072265;28;20493;-69
2021/08/09 00:58:56;;;;;;;5.28;2.10;;;18.20;99.90;;;;;;2072304;28;20030;-69
2021/08/09 00:59:59;;;;;;;2.90;2.03;;;18.20;99.90;;;;;;2071854;28;20026;-69
2021/08/09 01:01:00;;;;;;;2.45;1.80;;;18.20;99.90;;;;;;2072317;28;20018;-69
2021/08/09 01:02:01;;;;;;;3.00;1.80;;;18.20;99.90;;;;;;2071590;28;20036;-69
2021/08/09 01:03:01;;;;;;;3.70;1.90;;;18.20;99.90;;;;;;2072913;28;20108;-69
2021/08/09 01:04:03;;;;;;;3.47;1.73;;;18.20;99.90;;;;;;2071894;28;20076;-69
2021/08/09 01:05:05;;;;;;;2.53;1.90;;;18.20;99.90;;;;;;2072176;28;20026;-69
2021/08/09 01:06:06;;;;;;;2.75;1.58;;;18.20;99.90;;;;;;2072014;28;20076;-69
2021/08/09 01:07:08;;;;;;;4.80;1.63;;;18.20;99.90;;;;;;2071721;28;20104;-69
2021/08/09 01:08:34;;;;;;;3.97;1.73;;;18.20;99.90;;;;;;2071962;28;20033;-69
2021/08/09 01:10:08;;;;;;;5.50;1.90;;;18.20;99.90;;;;;;2071900;28;20037;-69
2021/08/09 01:11:15;;;;;;;4.05;1.58;;;18.10;99.90;;;;;;2068697;28;20049;-69
2021/08/09 01:12:26;;;;;;;3.28;1.50;;;18.10;99.90;;;;;;2071628;28;20645;-69
2021/08/09 01:13:34;;;;;;;3.42;1.70;;;18.10;99.90;;;;;;2072207;28;20049;-69
2021/08/09 01:14:58;;;;;;;3.78;1.80;;;18.00;99.90;;;;;;2072016;28;20033;-69
2021/08/09 01:16:08;;;;;;;5.40;2.15;;;18.00;99.90;;;;;;2071964;28;20798;-69
2021/08/09 01:17:10;;;;;;;2.90;1.80;;;18.00;99.90;;;;;;2071696;28;20490;-69
2021/08/09 01:18:13;;;;;;;6.28;2.00;;;18.00;99.90;;;;;;2071877;28;20049;-69
2021/08/09 01:19:42;;;;;;;3.65;2.17;;;18.00;99.90;;;;;;2076094;28;20460;-69
2021/08/09 01:20:49;;;;;;;6.95;1.85;;;18.00;99.90;;;;;;2075189;28;20088;-69
2021/08/09 01:21:52;;;;;;;4.78;2.08;;;18.00;99.90;;;;;;2071773;28;20022;-69
2021/08/09 01:23:05;;;;;;;2.70;1.90;;;18.00;99.90;;;;;;2063221;28;20022;-69
2021/08/09 01:24:29;;;;;;;5.03;1.92;;;18.00;99.90;;;;;;2069928;28;20033;-69
2021/08/09 01:25:37;;;;;;;6.65;2.08;;;18.00;99.90;;;;;;2071902;28;20032;-69
2021/08/09 01:26:59;;;;;;;2.70;1.55;;;18.00;99.90;;;;;;2071971;28;20394;-69
2021/08/09 01:28:02;;;;;;;2.92;1.88;;;17.90;99.90;;;;;;2072198;28;20045;-69
2021/08/09 01:29:10;;;;;;;2.40;1.88;;;17.90;99.90;;;;;;2071005;28;20529;-69
2021/08/09 01:30:11;;;;;;;4.03;2.00;;;17.90;99.90;;;;;;2071437;28;20611;-69
2021/08/09 01:31:14;;;;;;;4.72;1.70;;;17.90;99.90;;;;;;2071882;28;20036;-69
2021/08/09 01:32:16;;;;;;;3.90;1.70;;;17.90;99.90;;;;;;2071641;28;20036;-69
2021/08/09 01:33:17;;;;;;;3.00;1.48;;;17.90;99.90;;;;;;2071145;28;20482;-69
2021/08/09 01:34:20;;;;;;;4.95;2.42;;;17.90;99.90;;;;;;2071932;28;20025;-69
2021/08/09 01:35:24;;;;;;;8.13;2.13;;;17.90;99.90;;;;;;2071337;28;20116;-69
2021/08/09 01:36:27;;;;;;;3.55;2.00;;;17.90;99.90;;;;;;2073665;28;20025;-69
2021/08/09 01:37:29;;;;;;;2.45;1.42;;;17.90;99.90;;;;;;2070493;28;20030;-69
2021/08/09 01:38:31;;;;;;;3.22;1.88;;;17.90;99.90;;;;;;2071495;28;20067;-69
2021/08/09 01:39:32;;;;;;;3.92;1.95;;;17.90;99.90;;;;;;2071549;28;20025;-69
2021/08/09 01:40:34;;;;;;;2.78;1.83;;;17.90;99.90;;;;;;2071610;28;20018;-69
2021/08/09 01:41:35;;;;;;;5.55;2.65;;;17.80;99.90;;;;;;2071501;28;20032;-69
2021/08/09 01:42:43;;;;;;;3.35;1.90;;;17.80;99.90;;;;;;2071642;28;20032;-69
2021/08/09 01:43:44;;;;;;;3.88;1.92;;;17.80;99.90;;;;;;2072142;28;20029;-69
2021/08/09 01:44:46;;;;;;;4.15;1.98;;;17.80;99.90;;;;;;2071669;28;20670;-69
2021/08/09 01:45:47;;;;;;;5.85;2.45;;;17.80;99.90;;;;;;2071767;28;20040;-69
2021/08/09 01:46:49;;;;;;;4.93;1.98;;;17.80;99.90;;;;;;2071428;28;20604;-69
2021/08/09 01:47:51;;;;;;;3.53;1.73;;;17.80;99.90;;;;;;2071758;28;20018;-69
2021/08/09 01:48:52;;;;;;;3.08;1.90;;;17.80;99.90;;;;;;2069390;28;20026;-69
2021/08/09 01:49:54;;;;;;;2.90;1.88;;;17.80;99.90;;;;;;2071664;28;20396;-69
2021/08/09 01:50:55;;;;;;;3.70;1.85;;;17.80;99.90;;;;;;2071476;28;20030;-69
2021/08/09 01:51:57;;;;;;;6.45;2.13;;;17.80;99.90;;;;;;2073830;28;20398;-69
2021/08/09 01:52:58;;;;;;;3.80;1.60;;;17.70;99.90;;;;;;2071271;28;20113;-69
2021/08/09 01:54:00;;;;;;;3.63;1.60;;;17.80;99.90;;;;;;2071251;28;20021;-69
2021/08/09 01:55:01;;;;;;;3.40;1.63;;;17.80;99.90;;;;;;2071218;28;20260;-69
2021/08/09 01:56:02;;;;;;;4.03;1.90;;;17.80;99.90;;;;;;2070064;28;20068;-69
2021/08/09 01:57:04;;;;;;;4.50;1.85;;;17.80;99.90;;;;;;2069723;28;20073;-69
2021/08/09 01:58:05;;;;;;;4.88;2.05;;;17.80;99.90;;;;;;2071596;28;20029;-69
2021/08/09 01:59:06;;;;;;;3.38;2.08;;;17.70;99.90;;;;;;2071921;28;20565;-69
2021/08/09 02:00:13;;;;;;;4.78;2.22;;;17.70;99.90;;;;;;2071344;28;20022;-69
2021/08/09 02:01:14;;;;;;;3.25;1.77;;;17.70;99.90;;;;;;2072942;28;20075;-69
2021/08/09 02:02:28;;;;;;;3.45;1.77;;;17.70;99.90;;;;;;2072650;28;20026;-69
2021/08/09 02:03:28;;;;;;;2.97;1.83;;;17.70;99.90;;;;;;2072298;28;20034;-69
2021/08/09 02:04:29;;;;;;;2.65;1.95;;;17.60;99.90;;;;;;2071717;28;20030;-69
2021/08/09 02:05:29;;;;;;;3.28;1.90;;;17.70;99.90;;;;;;2072714;28;20052;-69
2021/08/09 02:06:30;;;;;;;3.03;1.88;;;17.60;99.90;;;;;;2068488;28;20104;-69
2021/08/09 02:07:33;;;;;;;2.80;1.80;;;17.60;99.90;;;;;;2072911;28;20049;-69
2021/08/09 02:08:35;;;;;;;5.20;1.73;;;17.60;99.90;;;;;;2072674;28;20105;-69
2021/08/09 02:09:35;;;;;;;3.55;1.73;;;17.60;99.90;;;;;;2072834;28;20026;-69
2021/08/09 02:10:36;;;;;;;4.32;2.40;;;17.60;99.90;;;;;;2072462;28;20029;-69
2021/08/09 02:11:58;;;;;;;4.53;2.15;;;17.60;99.90;;;;;;2072783;28;20034;-69
2021/08/09 02:13:17;;;;;;;2.92;2.13;;;17.60;99.90;;;;;;2072416;28;20029;-69
2021/08/09 02:14:21;;;;;;;5.53;1.83;;;17.60;99.90;;;;;;2072660;28;20119;-69
2021/08/09 02:15:33;;;;;;;2.47;2.08;;;17.50;99.90;;;;;;2072730;28;20042;-69
2021/08/09 02:16:45;;;;;;;4.70;2.10;;;17.50;99.90;;;;;;2072768;28;20077;-69
2021/08/09 02:18:07;;;;;;;4.07;1.98;;;17.50;99.90;;;;;;2072666;28;20030;-69
2021/08/09 02:19:20;;;;;;;4.60;1.98;;;17.40;99.90;;;;;;2072839;28;20389;-69
2021/08/09 02:20:29;;;;;;;5.03;1.92;;;17.40;99.90;;;;;;2073128;28;20026;-69
2021/08/09 02:21:40;;;;;;;5.63;2.28;;;17.40;99.90;;;;;;2081009;28;20436;-69
2021/08/09 02:22:47;;;;;;;5.97;2.30;;;17.40;99.90;;;;;;2072377;28;20022;-69
2021/08/09 02:23:59;;;;;;;7.50;2.67;;;17.40;99.90;;;;;;2072787;28;20030;-69
2021/08/09 02:25:23;;;;;;;2.67;1.80;;;17.40;99.90;;;;;;2072618;28;20101;-69
2021/08/09 02:26:35;;;;;;;6.55;1.90;;;17.40;99.90;;;;;;2071475;28;20102;-69
2021/08/09 02:27:44;;;;;;;2.60;1.80;;;17.40;99.90;;;;;;2068151;28;20029;-69
2021/08/09 02:28:47;;;;;;;4.03;2.38;;;17.30;99.90;;;;;;2072559;28;20036;-69
2021/08/09 02:29:51;;;;;;;2.20;1.50;;;17.30;99.90;;;;;;2073010;28;20056;-69
2021/08/09 02:30:57;;;;;;;2.53;2.15;;;17.30;99.90;;;;;;2064277;28;20021;-69
2021/08/09 02:32:00;;;;;;;3.42;1.95;;;17.40;99.90;;;;;;2068724;28;20032;-69
2021/08/09 02:33:03;;;;;;;3.47;1.95;;;17.30;99.90;;;;;;2072087;28;20063;-69
2021/08/09 02:34:05;;;;;;;6.85;2.00;;;17.40;99.90;;;;;;2072861;28;20048;-69
2021/08/09 02:35:07;;;;;;;2.83;2.17;;;17.30;99.90;;;;;;2075226;28;20045;-69
2021/08/09 02:36:08;;;;;;;4.32;2.00;;;17.40;99.90;;;;;;2072755;28;20018;-69
2021/08/09 02:37:09;;;;;;;3.40;1.88;;;17.40;99.90;;;;;;2072555;28;20417;-69
2021/08/09 02:38:10;;;;;;;5.30;1.92;;;17.30;99.90;;;;;;2072700;28;20022;-69
2021/08/09 02:39:14;;;;;;;3.05;1.67;;;17.30;99.90;;;;;;2072304;28;20863;-69
2021/08/09 02:40:17;;;;;;;7.95;2.30;;;17.30;99.90;;;;;;2072675;28;20402;-69
2021/08/09 02:41:19;;;;;;;5.43;2.20;;;17.30;99.90;;;;;;2072506;28;20025;-69
2021/08/09 02:42:20;;;;;;;4.45;2.35;;;17.30;99.90;;;;;;2072475;28;20025;-69
2021/08/09 02:43:20;;;;;;;3.50;1.65;;;17.30;99.90;;;;;;2072090;28;20029;-69
2021/08/09 02:44:21;;;;;;;2.20;1.80;;;17.30;99.90;;;;;;2072729;28;20026;-69
2021/08/09 02:45:22;;;;;;;3.25;2.30;;;17.30;99.90;;;;;;2072597;28;20029;-69
2021/08/09 02:46:23;;;;;;;4.30;2.05;;;17.30;99.90;;;;;;2072806;28;20412;-69
2021/08/09 02:47:25;;;;;;;5.22;2.17;;;17.30;99.90;;;;;;2072256;28;20025;-69
2021/08/09 02:48:27;;;;;;;3.17;1.98;;;17.30;99.90;;;;;;2072097;28;20037;-69
2021/08/09 02:49:28;;;;;;;5.22;2.50;;;17.30;99.90;;;;;;2065448;28;20113;-69
2021/08/09 02:50:29;;;;;;;3.15;1.85;;;17.20;99.90;;;;;;2072806;28;20034;-69
2021/08/09 02:51:32;;;;;;;2.92;1.90;;;17.30;99.90;;;;;;2072362;28;20084;-69
2021/08/09 02:52:33;;;;;;;5.38;2.17;;;17.30;99.90;;;;;;2072864;28;20033;-69
2021/08/09 02:53:34;;;;;;;4.40;1.98;;;17.20;99.90;;;;;;2072567;28;20065;-69
2021/08/09 02:54:35;;;;;;;4.18;1.88;;;17.20;99.90;;;;;;2072592;28;20030;-69
2021/08/09 02:55:36;;;;;;;4.80;2.00;;;17.20;99.90;;;;;;2072352;28;20091;-69
2021/08/09 02:56:37;;;;;;;4.18;2.20;;;17.20;99.90;;;;;;2072264;28;20079;-69
2021/08/09 02:57:39;;;;;;;3.53;1.90;;;17.20;99.90;;;;;;2072667;28;20029;-69
2021/08/09 02:58:39;;;;;;;4.78;2.10;;;17.20;99.90;;;;;;2072747;28;20022;-69
2021/08/09 02:59:40;;;;;;;4.88;2.08;;;17.20;99.90;;;;;;2072385;28;20695;-69
2021/08/09 03:00:42;;;;;;;3.95;2.08;;;17.20;99.90;;;;;;2072636;28;20022;-69
2021/08/09 03:01:42;;;;;;;3.65;2.08;;;17.20;99.90;;;;;;2071856;28;20026;-69
2021/08/09 03:02:44;;;;;;;3.97;2.03;;;17.20;99.90;;;;;;2072431;28;20033;-69
2021/08/09 03:03:48;;;;;;;7.22;1.95;;;17.20;99.90;;;;;;2079943;28;20021;-69
2021/08/09 03:04:50;;;;;;;4.00;2.08;;;17.20;99.90;;;;;;2072556;28;20046;-69
2021/08/09 03:05:56;;;;;;;5.80;2.55;;;17.20;99.90;;;;;;2071815;28;20026;-69
2021/08/09 03:06:57;;;;;;;4.70;2.08;;;17.20;99.90;;;;;;2071591;28;20069;-69
2021/08/09 03:07:59;;;;;;;3.83;2.15;;;17.20;99.90;;;;;;2071719;28;20034;-69
2021/08/09 03:09:03;;;;;;;4.03;1.95;;;17.20;99.90;;;;;;2071488;28;20032;-69
2021/08/09 03:10:08;;;;;;;5.55;1.90;;;17.20;99.90;;;;;;2071581;28;20022;-69
2021/08/09 03:11:09;;;;;;;3.60;1.83;;;17.20;99.90;;;;;;2070789;28;20013;-69
2021/08/09 03:12:18;;;;;;;5.53;1.80;;;17.20;99.90;;;;;;2070929;28;20018;-69
2021/08/09 03:13:23;;;;;;;2.38;1.75;;;17.10;99.90;;;;;;2071285;28;20022;-69
2021/08/09 03:14:25;;;;;;;4.13;2.30;;;17.20;99.90;;;;;;2070747;28;20030;-69
2021/08/09 03:15:26;;;;;;;4.18;2.10;;;17.10;99.90;;;;;;2070444;28;20050;-69
2021/08/09 03:16:27;;;;;;;5.03;2.00;;;17.10;99.90;;;;;;2062856;28;20022;-69
2021/08/09 03:17:27;;;;;;;5.03;2.20;;;17.10;99.90;;;;;;2072033;28;20030;-69
2021/08/09 03:18:33;;;;;;;4.18;1.90;;;17.10;99.90;;;;;;2071273;28;20082;-68
2021/08/09 03:19:34;;;;;;;4.65;2.17;;;17.10;99.90;;;;;;2071580;28;20068;-69
2021/08/09 03:20:34;;;;;;;5.82;2.47;;;17.10;99.90;;;;;;2071255;28;20030;-69
2021/08/09 03:21:35;;;;;;;4.63;1.80;;;17.10;99.90;;;;;;2071050;28;20053;-69
2021/08/09 03:22:36;;;;;;;3.28;1.98;;;17.10;99.90;;;;;;2070740;28;20382;-69
2021/08/09 03:23:36;;;;;;;3.45;2.00;;;17.10;99.90;;;;;;2071332;28;20064;-69
2021/08/09 03:24:38;;;;;;;3.78;2.10;;;17.10;99.90;;;;;;2071315;28;20375;-69
2021/08/09 03:25:39;;;;;;;2.20;1.60;;;17.10;99.90;;;;;;2070796;28;20566;-69
2021/08/09 03:26:40;;;;;;;6.07;2.22;;;17.10;99.90;;;;;;2071484;28;20049;-69
2021/08/09 03:27:40;;;;;;;2.45;2.25;;;17.10;99.90;;;;;;2071271;28;20042;-69
2021/08/09 03:28:41;;;;;;;4.38;2.15;;;17.10;99.90;;;;;;2071201;28;20068;-69
2021/08/09 03:29:41;;;;;;;6.53;2.35;;;17.10;99.90;;;;;;2071216;28;20046;-69
2021/08/09 03:30:42;;;;;;;5.65;2.35;;;17.10;99.90;;;;;;2071337;28;20036;-69
2021/08/09 03:31:43;;;;;;;6.53;2.28;;;17.10;99.90;;;;;;2076574;28;20021;-69
2021/08/09 03:32:43;;;;;;;6.63;2.17;;;17.10;99.90;;;;;;2071067;28;20029;-69
2021/08/09 03:33:44;;;;;;;3.15;2.03;;;17.10;99.90;;;;;;2071178;28;20057;-69
2021/08/09 03:34:44;;;;;;;3.75;1.85;;;17.10;99.90;;;;;;2071377;28;20029;-69
2021/08/09 03:35:45;;;;;;;2.80;2.15;;;17.10;99.90;;;;;;2071243;28;20038;-69
2021/08/09 03:36:46;;;;;;;7.15;2.75;;;17.10;99.90;;;;;;2070558;28;20557;-69
2021/08/09 03:37:47;;;;;;;5.57;2.08;;;17.10;99.90;;;;;;2070923;28;20026;-69
2021/08/09 03:38:48;;;;;;;5.93;2.30;;;17.10;99.90;;;;;;2070831;28;20022;-69
2021/08/09 03:39:48;;;;;;;4.68;2.33;;;17.10;99.90;;;;;;2071166;28;20045;-69
2021/08/09 03:40:49;;;;;;;7.18;2.15;;;17.10;99.90;;;;;;2071011;28;20033;-69
2021/08/09 03:41:49;;;;;;;5.00;2.40;;;17.10;99.90;;;;;;2071175;28;20033;-69
2021/08/09 03:42:50;;;;;;;4.38;2.50;;;17.10;99.90;;;;;;2070719;28;20061;-69
2021/08/09 03:43:50;;;;;;;7.10;2.30;;;17.10;99.90;;;;;;2071005;28;20030;-69
2021/08/09 03:44:51;;;;;;;4.57;1.92;;;17.10;99.90;;;;;;2071381;28;20034;-69
2021/08/09 03:45:52;;;;;;;3.35;2.40;;;17.10;99.90;;;;;;2072960;28;20034;-69
2021/08/09 03:46:52;;;;;;;2.55;1.73;;;17.10;99.90;;;;;;2070801;28;20034;-69
2021/08/09 03:47:53;;;;;;;6.05;2.33;;;17.10;99.90;;;;;;2071210;28;20033;-69
2021/08/09 03:48:54;;;;;;;4.38;2.25;;;17.20;99.90;;;;;;2071120;28;20508;-69
2021/08/09 03:49:55;;;;;;;4.60;2.20;;;17.10;99.90;;;;;;2070875;28;20049;-69
2021/08/09 03:50:55;;;;;;;2.85;1.55;;;17.20;99.90;;;;;;2071105;28;20142;-69
2021/08/09 03:51:56;;;;;;;5.50;2.65;;;17.20;99.90;;;;;;2070795;28;20045;-69
2021/08/09 03:52:56;;;;;;;4.20;2.13;;;17.20;99.90;;;;;;2070866;28;20105;-69
2021/08/09 03:53:57;;;;;;;4.43;2.30;;;17.20;99.90;;;;;;2071092;28;20382;-69
2021/08/09 03:54:57;;;;;;;5.72;2.13;;;17.20;99.90;;;;;;2071100;28;20103;-69
2021/08/09 03:55:58;;;;;;;3.88;1.98;;;17.20;99.90;;;;;;2070820;28;20355;-69
2021/08/09 03:56:58;;;;;;;4.65;1.80;;;17.20;99.90;;;;;;2071105;28;20072;-69
2021/08/09 03:57:59;;;;;;;5.70;2.10;;;17.20;99.90;;;;;;2070850;28;20213;-69
2021/08/09 03:59:00;;;;;;;3.67;2.05;;;17.10;99.90;;;;;;2072069;28;20080;-69
2021/08/09 04:00:00;;;;;;;2.47;1.90;;;17.10;99.90;;;;;;2071127;28;20050;-69
2021/08/09 04:01:01;;;;;;;3.42;1.77;;;17.20;99.90;;;;;;2072147;28;20057;-69
2021/08/09 04:02:02;;;;;;;8.77;2.88;;;17.10;99.90;;;;;;2072303;28;20053;-70
2021/08/09 04:03:02;;;;;;;3.72;2.08;;;17.20;99.90;;;;;;2071421;28;20018;-70
2021/08/09 04:04:03;;;;;;;3.90;1.90;;;17.10;99.90;;;;;;2072254;28;20101;-69
2021/08/09 04:05:06;;;;;;;6.65;2.30;;;17.20;99.90;;;;;;2072395;28;20053;-69
2021/08/09 04:06:07;;;;;;;3.83;1.95;;;17.10;99.90;;;;;;2072711;28;20022;-69
2021/08/09 04:07:08;;;;;;;3.60;2.00;;;17.20;99.90;;;;;;2072538;28;20512;-69
2021/08/09 04:08:08;;;;;;;6.05;2.60;;;17.20;99.90;;;;;;2072543;28;20018;-69
2021/08/09 04:09:09;;;;;;;3.75;2.38;;;17.20;99.90;;;;;;2072416;28;20030;-69
2021/08/09 04:10:10;;;;;;;4.78;1.70;;;17.20;99.90;;;;;;2072396;28;20026;-69
2021/08/09 04:11:10;;;;;;;5.13;2.20;;;17.20;99.90;;;;;;2072605;28;20409;-69
2021/08/09 04:12:11;;;;;;;4.38;2.35;;;17.20;99.90;;;;;;2072427;28;20482;-69
2021/08/09 04:13:12;;;;;;;4.07;2.10;;;17.20;99.90;;;;;;2073713;28;20029;-69
2021/08/09 04:14:12;;;;;;;4.38;2.03;;;17.20;99.90;;;;;;2074856;28;20030;-69
2021/08/09 04:15:13;;;;;;;4.45;2.05;;;17.20;99.90;;;;;;2071722;28;20494;-69
2021/08/09 04:16:13;;;;;;;4.45;2.53;;;17.20;99.90;;;;;;2072521;28;20084;-69
2021/08/09 04:17:15;;;;;;;4.90;1.98;;;17.20;99.90;;;;;;2072057;28;20637;-69
2021/08/09 04:18:15;;;;;;;6.57;2.75;;;17.20;99.90;;;;;;2072559;28;20045;-69
2021/08/09 04:19:16;;;;;;;3.70;2.03;;;17.20;99.90;;;;;;2072119;28;20030;-69
2021/08/09 04:20:17;;;;;;;5.07;2.30;;;17.20;99.90;;;;;;2072028;28;20527;-69
2021/08/09 04:21:17;;;;;;;3.53;2.03;;;17.20;99.90;;;;;;2072418;28;20018;-69
2021/08/09 04:22:18;;;;;;;10.00;2.42;;;17.20;99.90;;;;;;2072384;28;20091;-69
2021/08/09 04:23:18;;;;;;;3.47;2.00;;;17.20;99.90;;;;;;2071682;28;20034;-69
2021/08/09 04:24:19;;;;;;;5.45;2.70;;;17.20;99.90;;;;;;2072353;28;20025;-69
2021/08/09 04:25:19;;;;;;;3.95;1.77;;;17.20;99.90;;;;;;2072238;28;20057;-69
2021/08/09 04:26:20;;;;;;;5.78;2.33;;;17.20;99.90;;;;;;2072289;28;20029;-69
2021/08/09 04:27:21;;;;;;;3.70;2.20;;;17.20;99.90;;;;;;2074314;28;20037;-69
2021/08/09 04:28:21;;;;;;;3.78;1.92;;;17.20;99.90;;;;;;2078921;28;20021;-69
2021/08/09 04:29:22;;;;;;;3.97;2.58;;;17.20;99.90;;;;;;2072311;28;20088;-69
2021/08/09 04:30:22;;;;;;;4.25;1.80;;;17.20;99.90;;;;;;2072157;28;20514;-69
2021/08/09 04:31:23;;;;;;;4.13;2.13;;;17.20;99.90;;;;;;2071869;28;20096;-69
2021/08/09 04:32:23;;;;;;;3.83;2.35;;;17.20;99.90;;;;;;2071517;28;20025;-69
2021/08/09 04:33:24;;;;;;;5.40;2.10;;;17.20;99.90;;;;;;2071364;28;20037;-69
2021/08/09 04:34:24;;;;;;;4.00;2.10;;;17.20;99.90;;;;;;2072351;28;20036;-69
2021/08/09 04:35:25;;;;;;;4.25;2.17;;;17.20;99.90;;;;;;2072021;28;20033;-69
2021/08/09 04:36:26;;;;;;;5.55;2.30;;;17.20;99.90;;;;;;2072442;28;20495;-69
2021/08/09 04:37:26;;;;;;;5.63;1.90;;;17.20;99.90;;;;;;2072593;28;20057;-70
2021/08/09 04:38:27;;;;;;;5.53;2.47;;;17.20;99.90;;;;;;2072153;28;20030;-69
2021/08/09 04:39:27;;;;;;;6.28;2.17;;;17.20;99.90;;;;;;2072169;28;20522;-69
2021/08/09 04:40:30;;;;;;;4.57;2.08;;;17.20;99.90;;;;;;2072249;28;20052;-69
2021/08/09 04:41:31;;;;;;;6.40;2.38;;;17.20;99.90;;;;;;2071855;28;20544;-69
2021/08/09 04:42:31;;;;;;;3.83;2.00;;;17.20;99.90;;;;;;2072528;28;20496;-69
2021/08/09 04:43:37;;;;;;;4.68;2.28;;;17.20;99.90;;;;;;2071857;28;20026;-69
2021/08/09 04:44:37;;;;;;;2.47;1.65;;;17.20;99.90;;;;;;2071851;28;20097;-69
2021/08/09 04:45:38;;;;;;;3.90;1.73;;;17.20;99.90;;;;;;2072217;28;20030;-70
2021/08/09 04:46:39;;;;;;;3.15;1.75;;;17.20;99.90;;;;;;2072004;28;20061;-69
2021/08/09 04:47:40;;;;;;;4.20;2.28;;;17.30;99.90;;;;;;2072399;28;20034;-69
2021/08/09 04:48:40;;;;;;;4.22;2.10;;;17.30;99.90;;;;;;2071559;28;20030;-69
2021/08/09 04:49:42;;;;;;;5.72;1.98;;;17.30;99.90;;;;;;2071548;28;20064;-69
2021/08/09 04:50:42;;;;;;;4.97;2.20;;;17.30;99.90;;;;;;2072220;28;20029;-69
2021/08/09 04:51:43;;;;;;;3.92;1.80;;;17.30;99.90;;;;;;2072023;28;20022;-69
2021/08/09 04:52:44;;;;;;;3.38;2.00;;;17.30;99.90;;;;;;2071710;28;20561;-69
2021/08/09 04:53:44;;;;;;;4.88;2.30;;;17.30;99.90;;;;;;2071877;28;20026;-70
2021/08/09 04:54:45;;;;;;;4.43;2.00;;;17.30;99.90;;;;;;2069540;28;20488;-69
2021/08/09 04:55:46;;;;;;;4.00;1.92;;;17.30;99.90;;;;;;2076174;28;20034;-69
2021/08/09 04:56:46;;;;;;;5.05;2.47;;;17.30;99.90;;;;;;2072060;28;20018;-69
2021/08/09 04:57:47;;;;;;;2.67;1.90;;;17.40;99.90;;;;;;2072009;28;20033;-69
2021/08/09 04:58:47;;;;;;;3.35;1.92;;;17.40;99.90;;;;;;2072139;28;20038;-70
2021/08/09 04:59:48;;;;;;;4.65;1.95;;;17.40;99.90;;;;;;2072129;28;20496;-70
2021/08/09 05:00:49;;;;;;;7.95;2.45;;;17.40;99.90;;;;;;2072006;28;20041;-70
2021/08/09 05:01:50;;;;;;;3.83;2.15;;;17.40;99.90;;;;;;2072007;28;20022;-69
2021/08/09 05:02:50;;;;;;;4.75;2.63;;;17.40;99.90;;;;;;2071382;28;20107;-69
2021/08/09 05:03:51;;;;;;;5.93;2.40;;;17.40;99.90;;;;;;2072262;28;20109;-70
2021/08/09 05:04:52;;;;;;;4.57;1.75;;;17.40;99.90;;;;;;2071941;28;20113;-69
2021/08/09 05:05:52;;;;;;;3.33;1.85;;;17.40;99.90;;;;;;2072044;28;20478;-70
2021/08/09 05:06:53;;;;;;;3.88;1.80;;;17.40;99.90;;;;;;2072240;28;20033;-70
2021/08/09 05:07:55;;;;;;;4.70;2.10;;;17.40;99.90;;;;;;2071966;28;20378;-69
2021/08/09 05:08:57;;;;;;;4.72;2.45;;;17.40;99.90;;;;;;2071966;28;20079;-69
2021/08/09 05:09:57;;;;;;;4.30;2.20;;;17.40;99.90;;;;;;2077193;28;20022;-69
2021/08/09 05:10:58;;;;;;;7.25;2.75;;;17.40;99.90;;;;;;2074902;28;20695;-70
2021/08/09 05:11:58;;;;;;;4.82;2.70;;;17.40;99.90;;;;;;2071765;28;20022;-70
2021/08/09 05:12:59;;;;;;;3.22;1.88;;;17.40;99.90;;;;;;2071482;28;20501;-70
2021/08/09 05:13:59;;;;;;;4.88;2.33;;;17.40;99.90;;;;;;2071970;28;20034;-69
2021/08/09 05:15:01;;;;;;;3.33;1.88;;;17.50;99.90;;;;;;2071846;28;20474;-69
2021/08/09 05:16:02;;;;;;;3.72;2.22;;;17.50;99.90;;;;;;2071644;28;20026;-70
2021/08/09 05:17:03;;;;;;;6.00;2.47;;;17.50;99.90;;;;;;2071843;28;20072;-69
2021/08/09 05:18:04;;;;;;;4.50;2.05;;;17.50;99.90;;;;;;2071876;28;20144;-69
2021/08/09 05:19:04;;;;;;;3.67;1.70;;;17.50;99.90;;;;;;2072006;28;20041;-69
2021/08/09 05:20:06;;;;;;;5.70;2.17;;;17.50;99.90;;;;;;2071859;28;20149;-69
2021/08/09 05:21:07;;;;;;;5.35;1.75;;;17.50;99.90;;;;;;2072047;28;20030;-70
2021/08/09 05:22:07;;;;;;;2.90;2.10;;;17.50;99.90;;;;;;2071894;28;20037;-69
2021/08/09 05:23:08;;;;;;;3.42;2.05;;;17.50;99.90;;;;;;2071624;28;20024;-69
2021/08/09 05:24:08;;;;;;;6.00;2.30;;;17.50;99.90;;;;;;2077288;28;20021;-69
2021/08/09 05:25:10;;;;;;;5.15;2.28;;;17.50;99.90;;;;;;2076670;28;20028;-69